*** The Vicarage Weather Feed ***

Nearby METAR Reports


 

CYOO - Oshawa, Municipal Airport, Ontario, Canada
Distance from station: NW 3.2km
Updated: 19/04/2018 11:00
Overcast
Overcast
 Wind from NW
Wind: NW 20 km/h, Gust: 44 km/h
Temperature: 2°C
Wind Chill: -3°C
Dew Point: -4°C
Humidity: 65%
Barometer: 1012.5 hPa
Clouds: Overcast
Visibility: 14 km
Cloud details: Partly cloudy 823 m
Overcast 1494 m
2018/04/19 15:00 CYOO 191500Z AUTO 32011G24KT 9SM SCT027 OVC049 02/M04 A2990 RMK SLP133
CYKZ - Toronto, Buttonville, Municipal Airport, Ontario, Canada
Distance from station: W 39.75km
Updated: 19/04/2018 11:00
Light snow, Showers, Mostly cloudy
Light snow, Showers, Mostly cloudy
 Wind from NNW
Wind: NNW 22 km/h, Gust: 41 km/h
Temperature: 1°C
Wind Chill: -4°C
Dew Point: -5°C
Humidity: 65%
Barometer: 1012.9 hPa
Summary: Light snow, Showers
Clouds: Mostly cloudy
Visibility: 21 km
Cloud details: Mostly cloudy 610 m
Mostly cloudy 1524 m
2018/04/19 15:00 CYKZ 191500Z 33012G22KT 13SM -SHSN BKN020TCU BKN050 01/M05 A2991 RMK TCU6SC1 SLP139
 
CXTO - Toronto City, Buttonville, Ontario, Canada
Distance from station: WSW 49km
Updated: 19/04/2018 11:00

 
Temperature: 3°C
Dew Point: -5°C
Humidity: 56%
2018/04/19 15:00 CXTO 191500Z AUTO 03/M05 RMK AO1 SLP137 T00251049 51020
CYTZ - Toronto City, Island Airport, Ontario, Canada
Distance from station: SW 51.7km
Updated: 19/04/2018 11:00
Mostly cloudy
Mostly cloudy
 Wind from NW
Wind: NW 26 km/h, Gust: 43 km/h
Temperature: 3°C
Wind Chill: -2°C
Dew Point: -4°C
Humidity: 60%
Barometer: 1013.9 hPa
Clouds: Mostly cloudy
Visibility: 14 km
Cloud details: Mostly cloudy 1006 m
2018/04/19 15:00 CYTZ 191500Z AUTO 32014G23KT 300V010 9SM BKN033 03/M04 A2994 RMK SLP142
 
CYPQ - Toronto, Peterborough Airport, Ontario, Canada
Distance from station: NE 54km
Updated: 19/04/2018 11:25
Light rain, Overcast
Light rain, Overcast
 Wind from NW
Wind: NW 26 km/h, Gust: 41 km/h
Temperature: 1°C
Wind Chill: -4°C
Dew Point: -3°C
Humidity: 75%
Barometer: 1011.9 hPa
Summary: Light rain
Clouds: Overcast
Visibility: 14 km
Cloud details: Mostly cloudy 914 m
Mostly cloudy 1189 m
Overcast 1433 m
2018/04/19 15:25 CYPQ 191525Z AUTO 32014G22KT 9SM -RA BKN030 BKN039 OVC047 01/M03 A2988 RMK SLP127
CWNC - Cobourg, (mars), Ontario, Canada
Distance from station: E 57km
Updated: 19/04/2018 11:00

 Wind from NNW
Wind: NNW 17 km/h
Temperature: 2°C
Wind Chill: -2°C
Dew Point: -4°C
Humidity: 65%
2018/04/19 15:00 CWNC 191500Z AUTO 34009KT 02/M04 RMK AO1 SLP115 T00221038 51020
 
CYYZ - Toronto, Lester Pearson Airport, Ontario, Canada
Distance from station: W 65.5km
Updated: 19/04/2018 11:35
Mostly cloudy
Mostly cloudy
 Wind from NNW
Wind: NNW 37 km/h
Temperature: 1°C
Wind Chill: -6°C
Dew Point: -4°C
Humidity: 70%
Barometer: 1013.9 hPa
Clouds: Mostly cloudy
Visibility: 24 km
Cloud details: Mostly cloudy 853 m
2018/04/19 15:35 CYYZ 191535Z 34020KT 15SM BKN028 01/M04 A2994 RMK SC7 SLP146
CWGL - Lagoon City, Ontario, Canada
Distance from station: NNW 74km
Updated: 19/04/2018 11:00

 Wind from NNW
Wind: NNW 28 km/h, Gust: 37 km/h
Temperature: 0°C
Wind Chill: -6°C
Dew Point: -6°C
Humidity: 64%
2018/04/19 15:00 CWGL 191500Z AUTO 34015G20KT M00/M06 RMK AO1 PK WND 33020/1456 SLP131 T10021056 53020
 
CWWZ - Port Weller Airport, Ontario, Canada
Distance from station: SSW 77km
Updated: 19/04/2018 11:00

 Wind from NNW
Wind: NNW 33 km/h
Temperature: 4°C
Wind Chill: -2°C
Dew Point: -2°C
Humidity: 65%
2018/04/19 15:00 CWWZ 191500Z AUTO 33018KT 04/M02 RMK AO1 PK WND 33023/1412 SLP141 T00361019 53020
CYSN - St.Catharines Niagara Airport, Ontario, Canada
Distance from station: SSW 81km
Updated: 19/04/2018 11:00
Mostly cloudy
Mostly cloudy
 Wind from NNW
Wind: NNW 28 km/h
Temperature: 2°C
Wind Chill: -3°C
Dew Point: -4°C
Humidity: 65%
Barometer: 1013.5 hPa
Clouds: Mostly cloudy
Visibility: 24 km
Cloud details: Mostly cloudy 1280 m
2018/04/19 15:00 CYSN 191500Z 33015KT 15SM BKN042 02/M04 A2993 RMK SC7 SLP140
This data is offered only as a general guide to local weather conditions. It should not be relied upon in lieu of officially disseminated weather information for determining possible risk to persons or property. This site, including all information contained therein, is made available as is without warranties of any kind, either express or implied. The Vicarage Weather Feed© includes links to other sites for user convenience only. The content of any linked third-party site is not controlled by The Vicarage Weather Feed©. Access to any third-party website through The Vicarage Weather Feed©, regardless of whether or not the third-party site is a linked site, is entirely at the users own risk. Externally sourced content or material is excluded from The Vicarage Weather Feed© copyright and is the copyright and property of the respective provider. Skywarn® and the Skywarn® logo are registered trademarks of the National Oceanic and Atmospheric Administration, used with permission.